Portada
METAR-TAF:

METAR-TAF

Aeropuertos :

Reyes, Bolivia

latitud: 14-19S, longitud: 067-23W, altitud: 140 m

Observación

El informe se hizo hace 1 hora y 5 minutos, a las 22:00 UTC
Viento calma
Temperatura 34°C
Humedad 53%
Presión 1006 hPa
Visibilidad 10 km o más

METAR: SLRY 242200Z 00000KT 9999 NSC 34/23 Q1006

Hora: 19:05 (23:05 UTC)


TAF: falta

Observaciones y pronósticos meteorológicos de más de 4000 aeropuertos (mensajes METAR y TAF).

Los puntos amarillos y rojos representan las estaciones disponibles.

Ponga el ratón en el punto deseado para ver el nombre de la estación.

Haga clic para ver las observaciones y los pronósticos meteorológicos.

Para cambiar el mapa : haga clic en los botones verdes con una cruz de color negro para hacer un zoom, en el botón verde con un guión para alejar o en las flechas verdes para mapas adyacentes.


METAR-TAF: